createdAt,value
2019-02-21T00:00:58.473Z,0.00
2019-02-21T00:01:58.484Z,0.00
2019-02-21T00:03:51.392Z,0.00
2019-02-21T00:04:51.395Z,0.00
2019-02-21T00:06:44.789Z,0.00
2019-02-21T00:07:44.802Z,0.00
2019-02-21T00:09:38.202Z,0.00
2019-02-21T00:10:38.206Z,0.00
2019-02-21T00:12:31.113Z,0.00
2019-02-21T00:13:31.117Z,0.00
2019-02-21T00:15:24.511Z,0.00
2019-02-21T00:16:24.524Z,0.00
2019-02-21T00:18:17.428Z,0.00
2019-02-21T00:19:17.432Z,0.00
2019-02-21T00:21:10.330Z,0.00
2019-02-21T00:22:10.341Z,0.00
2019-02-21T00:24:03.251Z,0.00
2019-02-21T00:25:03.255Z,0.00
2019-02-21T00:26:56.154Z,0.00
2019-02-21T00:27:56.172Z,0.00
2019-02-21T00:29:49.080Z,0.00
2019-02-21T00:30:49.077Z,0.00
2019-02-21T00:32:41.987Z,0.00
2019-02-21T00:33:41.989Z,0.00
2019-02-21T00:35:34.976Z,0.00
2019-02-21T00:36:34.900Z,0.00
2019-02-21T00:38:28.301Z,0.00
2019-02-21T00:39:28.306Z,0.00
2019-02-21T00:41:21.698Z,0.00
2019-02-21T00:42:21.712Z,0.00
2019-02-21T00:44:14.618Z,0.00
2019-02-21T00:45:14.622Z,0.00
2019-02-21T00:47:07.521Z,0.00
2019-02-21T00:48:07.532Z,0.00
2019-02-21T00:50:00.439Z,0.00
2019-02-21T00:51:00.449Z,0.00
2019-02-21T00:52:53.350Z,0.00
2019-02-21T00:53:53.354Z,0.00
2019-02-21T00:55:46.258Z,0.00
2019-02-21T00:56:46.264Z,0.00
2019-02-21T00:58:39.170Z,0.00
2019-02-21T00:59:39.172Z,0.00
2019-02-21T01:01:32.070Z,0.00
2019-02-21T01:02:32.088Z,0.00
2019-02-21T01:04:25.082Z,0.00
2019-02-21T01:05:24.996Z,0.00
2019-02-21T01:07:17.889Z,0.00
2019-02-21T01:08:17.902Z,0.00
2019-02-21T01:10:10.807Z,0.00
2019-02-21T01:11:10.811Z,0.00
2019-02-21T01:13:03.717Z,0.00
2019-02-21T01:14:03.722Z,0.00
2019-02-21T01:15:56.621Z,0.00
2019-02-21T01:16:56.647Z,0.00
2019-02-21T01:18:49.548Z,0.00
2019-02-21T01:19:49.555Z,0.00
2019-02-21T01:21:42.446Z,0.00
2019-02-21T01:22:42.464Z,0.00
2019-02-21T01:24:35.365Z,0.00
2019-02-21T01:25:35.370Z,0.00
2019-02-21T01:27:28.272Z,0.00
2019-02-21T01:28:28.282Z,0.00
2019-02-21T01:30:21.682Z,0.00
2019-02-21T01:31:21.688Z,0.00
2019-02-21T01:33:14.598Z,0.00
2019-02-21T01:34:14.598Z,0.00
2019-02-21T01:36:07.994Z,0.00
2019-02-21T01:37:08.002Z,0.00
2019-02-21T01:39:01.428Z,0.00
2019-02-21T01:40:01.409Z,0.00
2019-02-21T01:41:54.307Z,0.00
2019-02-21T01:42:54.322Z,0.00
2019-02-21T01:44:47.230Z,0.00
2019-02-21T01:45:47.229Z,0.00
2019-02-21T01:47:40.129Z,0.00
2019-02-21T01:48:40.142Z,0.00
2019-02-21T01:50:33.541Z,0.00
2019-02-21T01:51:33.546Z,0.00
2019-02-21T01:53:26.455Z,0.00
2019-02-21T01:54:26.458Z,0.00
2019-02-21T01:56:19.354Z,0.00
2019-02-21T01:57:19.366Z,0.00
2019-02-21T01:59:12.775Z,0.00
2019-02-21T02:00:12.780Z,0.00
2019-02-21T02:02:06.178Z,0.00
2019-02-21T02:03:06.184Z,0.00
2019-02-21T02:04:59.091Z,0.00
2019-02-21T02:05:59.091Z,0.00
2019-02-21T02:07:51.993Z,0.00
2019-02-21T02:08:52.007Z,0.00
2019-02-21T02:10:44.910Z,0.00
2019-02-21T02:11:44.914Z,0.00
2019-02-21T02:13:37.820Z,0.00
2019-02-21T02:14:37.827Z,0.00
2019-02-21T02:16:30.726Z,0.00
2019-02-21T02:17:30.737Z,0.00
2019-02-21T02:19:23.643Z,0.00
2019-02-21T02:20:23.647Z,0.00
2019-02-21T02:22:17.041Z,0.00
2019-02-21T02:23:17.054Z,0.00
2019-02-21T02:25:10.453Z,0.00
2019-02-21T02:26:10.460Z,0.00
2019-02-21T02:28:03.360Z,0.00
2019-02-21T02:29:03.370Z,0.00
2019-02-21T02:30:56.774Z,0.00
2019-02-21T02:31:56.783Z,0.00
2019-02-21T02:33:49.683Z,0.00
2019-02-21T02:34:49.687Z,0.00
2019-02-21T02:36:42.583Z,0.00
2019-02-21T02:37:42.597Z,0.00
2019-02-21T02:39:35.502Z,0.00
2019-02-21T02:40:35.505Z,0.00
2019-02-21T02:42:28.897Z,0.00
2019-02-21T02:43:28.912Z,0.00
2019-02-21T02:45:21.813Z,0.00
2019-02-21T02:46:21.817Z,0.00
2019-02-21T02:48:14.715Z,0.00
2019-02-21T02:49:14.731Z,0.00
2019-02-21T02:51:07.635Z,0.00
2019-02-21T02:52:07.636Z,0.00
2019-02-21T02:54:01.034Z,0.00
2019-02-21T02:55:01.040Z,0.00
2019-02-21T02:56:54.432Z,0.00
2019-02-21T02:57:54.444Z,0.00
2019-02-21T02:59:47.845Z,0.00
2019-02-21T03:00:47.848Z,0.00
2019-02-21T03:02:40.766Z,0.00
2019-02-21T03:03:40.778Z,0.00
2019-02-21T03:05:34.176Z,0.00
2019-02-21T03:06:34.196Z,0.00
2019-02-21T03:08:27.574Z,0.00
2019-02-21T03:09:27.586Z,0.00
2019-02-21T03:11:20.491Z,0.00
2019-02-21T03:12:20.500Z,0.00
2019-02-21T03:14:14.542Z,0.00
2019-02-21T03:15:14.545Z,0.00
2019-02-21T03:17:07.445Z,0.00
2019-02-21T03:18:07.456Z,0.00
2019-02-21T03:20:00.364Z,0.00
2019-02-21T03:21:00.371Z,0.00
2019-02-21T03:22:53.270Z,0.00
2019-02-21T03:23:53.278Z,0.00
2019-02-21T03:25:46.187Z,0.00
2019-02-21T03:26:46.189Z,0.00
2019-02-21T03:28:39.088Z,0.00
2019-02-21T03:29:39.099Z,0.00
2019-02-21T03:31:32.014Z,0.00
2019-02-21T03:32:32.011Z,0.00
2019-02-21T03:34:25.509Z,0.00
2019-02-21T03:35:25.415Z,0.00
2019-02-21T03:37:18.326Z,0.00
2019-02-21T03:38:18.329Z,0.00
2019-02-21T03:40:11.242Z,0.00
2019-02-21T03:41:11.236Z,0.00
2019-02-21T03:43:04.137Z,0.00
2019-02-21T03:44:04.148Z,0.00
2019-02-21T03:45:57.052Z,0.00
2019-02-21T03:46:57.068Z,0.00
2019-02-21T03:48:49.958Z,0.00
2019-02-21T03:49:49.969Z,0.00
2019-02-21T03:51:42.877Z,0.00
2019-02-21T03:52:42.876Z,0.00
2019-02-21T03:54:35.787Z,0.00
2019-02-21T03:55:35.789Z,0.00
2019-02-21T03:57:28.689Z,0.00
2019-02-21T03:58:28.702Z,0.00
2019-02-21T04:00:22.203Z,0.00
2019-02-21T04:01:22.105Z,0.00
2019-02-21T04:03:14.999Z,0.00
2019-02-21T04:04:15.022Z,0.00
2019-02-21T04:06:08.412Z,0.00
2019-02-21T04:07:08.414Z,0.00
2019-02-21T04:09:01.315Z,0.00
2019-02-21T04:10:01.318Z,0.00
2019-02-21T04:11:54.235Z,0.00
2019-02-21T04:12:54.321Z,0.00
2019-02-21T04:14:47.143Z,0.00
2019-02-21T04:15:47.147Z,0.00
2019-02-21T04:17:40.042Z,0.00
2019-02-21T04:18:40.054Z,0.00
2019-02-21T04:20:33.473Z,0.00
2019-02-21T04:21:33.459Z,0.00
2019-02-21T04:23:26.852Z,0.00
2019-02-21T04:24:26.862Z,0.00
2019-02-21T04:26:20.264Z,0.00
2019-02-21T04:27:20.265Z,0.00
2019-02-21T04:29:13.164Z,0.00
2019-02-21T04:30:13.174Z,0.00
2019-02-21T04:32:16.581Z,0.00
2019-02-21T04:33:06.081Z,0.00
2019-02-21T04:34:58.985Z,0.00
2019-02-21T04:35:58.989Z,0.00
2019-02-21T04:37:52.386Z,0.00
2019-02-21T04:38:52.386Z,0.00
2019-02-21T04:40:45.299Z,0.00
2019-02-21T04:41:45.303Z,0.00
2019-02-21T04:43:38.199Z,0.00
2019-02-21T04:44:38.208Z,0.00
2019-02-21T04:46:31.113Z,0.00
2019-02-21T04:47:31.119Z,0.00
2019-02-21T04:49:24.038Z,0.00
2019-02-21T04:50:24.056Z,0.00
2019-02-21T04:52:16.958Z,0.00
2019-02-21T04:53:16.959Z,0.00
2019-02-21T04:55:10.357Z,0.00
2019-02-21T04:56:10.358Z,0.00
2019-02-21T04:58:03.257Z,0.00
2019-02-21T04:59:03.267Z,0.00
2019-02-21T05:00:56.183Z,0.00
2019-02-21T05:01:56.271Z,0.00
2019-02-21T05:03:49.574Z,0.00
2019-02-21T05:04:49.581Z,0.00
2019-02-21T05:06:42.981Z,0.00
2019-02-21T05:07:42.987Z,0.00
2019-02-21T05:09:35.881Z,0.00
2019-02-21T05:10:35.891Z,0.00
2019-02-21T05:12:28.797Z,0.00
2019-02-21T05:13:28.802Z,0.00
2019-02-21T05:15:21.704Z,0.00
2019-02-21T05:16:21.704Z,0.00
2019-02-21T05:18:15.109Z,0.00
2019-02-21T05:19:15.115Z,0.00
2019-02-21T05:21:08.019Z,0.00
2019-02-21T05:22:08.028Z,0.00
2019-02-21T05:24:00.931Z,0.00
2019-02-21T05:25:00.952Z,0.00
2019-02-21T05:26:53.833Z,0.00
2019-02-21T05:27:53.836Z,0.00
2019-02-21T05:29:46.745Z,0.00
2019-02-21T05:30:46.741Z,0.00
2019-02-21T05:32:41.176Z,0.00
2019-02-21T05:33:39.650Z,0.00
2019-02-21T05:35:32.549Z,0.00
2019-02-21T05:36:32.558Z,0.00
2019-02-21T05:38:25.457Z,0.00
2019-02-21T05:39:25.468Z,0.00
2019-02-21T05:41:18.865Z,0.00
2019-02-21T05:42:18.869Z,0.00
2019-02-21T05:44:11.761Z,0.00
2019-02-21T05:45:11.782Z,0.00
2019-02-21T05:47:04.680Z,0.00
2019-02-21T05:48:04.682Z,0.00
2019-02-21T05:49:57.582Z,0.00
2019-02-21T05:50:57.590Z,0.00
2019-02-21T05:52:50.494Z,0.00
2019-02-21T05:53:50.496Z,0.00
2019-02-21T05:55:43.400Z,0.00
2019-02-21T05:56:43.407Z,0.00
2019-02-21T05:58:36.307Z,0.00
2019-02-21T05:59:36.310Z,0.00
2019-02-21T06:01:29.718Z,0.00
2019-02-21T06:02:29.729Z,4.00
2019-02-21T06:04:23.114Z,4.00
2019-02-21T06:05:23.125Z,4.00
2019-02-21T06:07:16.032Z,8.00
2019-02-21T06:08:16.036Z,4.00
2019-02-21T06:10:09.459Z,12.00
2019-02-21T06:11:09.466Z,12.00
2019-02-21T06:13:02.865Z,16.00
2019-02-21T06:14:02.872Z,20.00
2019-02-21T06:15:55.772Z,28.00
2019-02-21T06:16:55.775Z,32.00
2019-02-21T06:18:48.674Z,40.00
2019-02-21T06:19:48.684Z,48.00
2019-02-21T06:21:42.282Z,64.00
2019-02-21T06:22:42.295Z,72.00
2019-02-21T06:24:35.713Z,88.00
2019-02-21T06:25:35.720Z,104.00
2019-02-21T06:27:29.137Z,128.00
2019-02-21T06:28:29.154Z,144.00
2019-02-21T06:30:22.537Z,172.00
2019-02-21T06:31:22.554Z,184.00
2019-02-21T06:33:15.962Z,212.00
2019-02-21T06:34:15.964Z,224.00
2019-02-21T06:36:08.876Z,256.00
2019-02-21T06:37:08.879Z,284.00
2019-02-21T06:39:02.271Z,332.00
2019-02-21T06:40:02.280Z,356.00
2019-02-21T06:41:59.737Z,400.00
2019-02-21T06:42:55.695Z,424.00
2019-02-21T06:44:48.585Z,476.00
2019-02-21T06:45:48.596Z,504.00
2019-02-21T06:47:41.513Z,564.00
2019-02-21T06:48:41.502Z,596.00
2019-02-21T06:50:34.909Z,660.00
2019-02-21T06:51:34.926Z,712.00
2019-02-21T06:53:28.323Z,812.00
2019-02-21T06:54:28.327Z,832.00
2019-02-21T06:56:21.734Z,832.00
2019-02-21T06:57:21.736Z,852.00
2019-02-21T06:59:14.641Z,936.00
2019-02-21T07:00:14.651Z,984.00
2019-02-21T07:02:08.057Z,1064.00
2019-02-21T07:03:15.529Z,1112.00
2019-02-21T07:05:00.964Z,1216.00
2019-02-21T07:06:00.982Z,1292.00
2019-02-21T07:07:53.876Z,1496.00
2019-02-21T07:08:54.291Z,1568.00
2019-02-21T07:10:46.772Z,1592.00
2019-02-21T07:11:46.791Z,1664.00
2019-02-21T07:13:40.197Z,1808.00
2019-02-21T07:14:40.206Z,1872.00
2019-02-21T07:16:33.112Z,1800.00
2019-02-21T07:17:33.106Z,1760.00
2019-02-21T07:19:27.075Z,1776.00
2019-02-21T07:20:27.011Z,1812.00
2019-02-21T07:22:22.336Z,1928.00
2019-02-21T07:23:19.929Z,2028.00
2019-02-21T07:25:14.316Z,2060.00
2019-02-21T07:26:14.328Z,2128.00
2019-02-21T07:28:11.629Z,2232.00
2019-02-21T07:29:07.242Z,2332.00
2019-02-21T07:31:00.634Z,2620.00
2019-02-21T07:32:00.647Z,2640.00
2019-02-21T07:33:53.568Z,2948.00
2019-02-21T07:34:53.556Z,3024.00
2019-02-21T07:36:46.468Z,3180.00
2019-02-21T07:37:46.477Z,3296.00
2019-02-21T07:39:39.377Z,3260.00
2019-02-21T07:40:39.386Z,2872.00
2019-02-21T07:42:32.303Z,3096.00
2019-02-21T07:43:32.295Z,3168.00
2019-02-21T07:45:25.198Z,3164.00
2019-02-21T07:46:25.207Z,3176.00
2019-02-21T07:48:18.120Z,3140.00
2019-02-21T07:49:18.122Z,3204.00
2019-02-21T07:51:13.416Z,3148.00
2019-02-21T07:52:11.032Z,3068.00
2019-02-21T07:54:05.009Z,3352.00
2019-02-21T07:55:05.011Z,3728.00
2019-02-21T07:56:57.920Z,4116.00
2019-02-21T07:57:57.921Z,4048.00
2019-02-21T07:59:50.824Z,4052.00
2019-02-21T08:00:50.837Z,3840.00
2019-02-21T08:02:43.748Z,3648.00
2019-02-21T08:03:47.303Z,3464.00
2019-02-21T08:05:36.655Z,3488.00
2019-02-21T08:06:36.666Z,3400.00
2019-02-21T08:08:32.273Z,3660.00
2019-02-21T08:09:29.574Z,3832.00
2019-02-21T08:11:22.477Z,4628.00
2019-02-21T08:12:23.298Z,4496.00
2019-02-21T08:14:16.268Z,3820.00
2019-02-21T08:15:15.551Z,4052.00
2019-02-21T08:17:08.463Z,5028.00
2019-02-21T08:18:08.468Z,5484.00
2019-02-21T08:20:08.535Z,5880.00
2019-02-21T08:21:01.397Z,5652.00
2019-02-21T08:22:54.307Z,5948.00
2019-02-21T08:23:54.320Z,6252.00
2019-02-21T08:25:47.205Z,6888.00
2019-02-21T08:26:47.219Z,7272.00
2019-02-21T08:28:40.142Z,7092.00
2019-02-21T08:29:40.133Z,7296.00
2019-02-21T08:31:33.037Z,7864.00
2019-02-21T08:32:33.050Z,8416.00
2019-02-21T08:34:25.975Z,9288.00
2019-02-21T08:35:25.973Z,9060.00
2019-02-21T08:37:18.887Z,8680.00
2019-02-21T08:38:18.890Z,8120.00
2019-02-21T08:40:11.793Z,7852.00
2019-02-21T08:41:14.391Z,7824.00
2019-02-21T08:43:04.717Z,7132.00
2019-02-21T08:44:04.725Z,7252.00
2019-02-21T08:45:57.747Z,6632.00
2019-02-21T08:46:57.642Z,6252.00
2019-02-21T08:48:50.552Z,5528.00
2019-02-21T08:49:50.560Z,5124.00
2019-02-21T08:51:43.477Z,4524.00
2019-02-21T08:52:43.481Z,4344.00
2019-02-21T08:54:36.393Z,4112.00
2019-02-21T08:55:36.394Z,4164.00
2019-02-21T08:57:29.798Z,4248.00
2019-02-21T08:58:29.805Z,4284.00
2019-02-21T09:00:22.710Z,4568.00
2019-02-21T09:01:22.724Z,5008.00
2019-02-21T09:03:18.020Z,6132.00
2019-02-21T09:04:26.935Z,6720.00
2019-02-21T09:06:08.549Z,8052.00
2019-02-21T09:07:08.563Z,8784.00
2019-02-21T09:09:01.478Z,8920.00
2019-02-21T09:10:01.485Z,8424.00
2019-02-21T09:11:54.385Z,7536.00
2019-02-21T09:12:54.406Z,7004.00
2019-02-21T09:14:47.319Z,6524.00
2019-02-21T09:15:47.322Z,6412.00
2019-02-21T09:17:40.234Z,6104.00
2019-02-21T09:18:40.243Z,6096.00
2019-02-21T09:20:33.145Z,6488.00
2019-02-21T09:21:33.157Z,6696.00
2019-02-21T09:23:26.074Z,7188.00
2019-02-21T09:24:38.507Z,7336.00
2019-02-21T09:26:21.530Z,7152.00
2019-02-21T09:27:19.196Z,6776.00
2019-02-21T09:29:12.111Z,5876.00
2019-02-21T09:30:12.116Z,5660.00
2019-02-21T09:32:06.845Z,5412.00
2019-02-21T09:33:05.043Z,5300.00
2019-02-21T09:34:58.773Z,5000.00
2019-02-21T09:35:57.956Z,4784.00
2019-02-21T09:37:50.870Z,4488.00
2019-02-21T09:38:50.881Z,4364.00
2019-02-21T09:40:43.791Z,4196.00
2019-02-21T09:41:43.807Z,4080.00
2019-02-21T09:43:36.722Z,3800.00
2019-02-21T09:44:36.732Z,3548.00
2019-02-21T09:46:29.639Z,3064.00
2019-02-21T09:47:31.128Z,3076.00
2019-02-21T09:49:22.564Z,3452.00
2019-02-21T09:50:22.571Z,3504.00
2019-02-21T09:52:15.473Z,3480.00
2019-02-21T09:53:15.489Z,3420.00
2019-02-21T09:55:08.400Z,3396.00
2019-02-21T09:56:08.412Z,3520.00
2019-02-21T09:58:01.391Z,3792.00
2019-02-21T09:59:01.331Z,3896.00
2019-02-21T10:00:54.242Z,4292.00
2019-02-21T10:01:54.243Z,4552.00
2019-02-21T10:03:47.156Z,5148.00
2019-02-21T10:04:47.160Z,5360.00
2019-02-21T10:06:40.064Z,4812.00
2019-02-21T10:07:40.078Z,4760.00
2019-02-21T10:09:32.994Z,5536.00
2019-02-21T10:10:32.997Z,5880.00
2019-02-21T10:12:25.905Z,6768.00
2019-02-21T10:13:25.913Z,6800.00
2019-02-21T10:15:18.825Z,6264.00
2019-02-21T10:16:18.830Z,6040.00
2019-02-21T10:18:11.750Z,5132.00
2019-02-21T10:19:11.753Z,4620.00
2019-02-21T10:21:04.664Z,4656.00
2019-02-21T10:22:04.677Z,5732.00
2019-02-21T10:23:57.733Z,8140.00
2019-02-21T10:24:57.593Z,8600.00
2019-02-21T10:26:50.496Z,8324.00
2019-02-21T10:27:50.512Z,7816.00
2019-02-21T10:29:43.424Z,7240.00
2019-02-21T10:30:43.432Z,7360.00
2019-02-21T10:32:36.339Z,8284.00
2019-02-21T10:33:46.277Z,9088.00
2019-02-21T10:35:29.266Z,9452.00
2019-02-21T10:36:29.271Z,8456.00
2019-02-21T10:38:22.187Z,7336.00
2019-02-21T10:39:22.196Z,7028.00
2019-02-21T10:41:15.109Z,6252.00
2019-02-21T10:42:15.117Z,6188.00
2019-02-21T10:44:08.035Z,7292.00
2019-02-21T10:45:08.048Z,7248.00
2019-02-21T10:47:00.946Z,6776.00
2019-02-21T10:48:00.963Z,7144.00
2019-02-21T10:49:53.885Z,7488.00
2019-02-21T10:50:53.881Z,7392.00
2019-02-21T10:52:46.789Z,7064.00
2019-02-21T10:53:46.817Z,6512.00
2019-02-21T10:55:39.710Z,5500.00
2019-02-21T10:56:39.725Z,5704.00
2019-02-21T10:58:32.634Z,6756.00
2019-02-21T10:59:32.641Z,7024.00
2019-02-21T11:01:25.561Z,6732.00
2019-02-21T11:02:25.567Z,6808.00
2019-02-21T11:04:18.481Z,6724.00
2019-02-21T11:05:18.489Z,6876.00
2019-02-21T11:07:11.536Z,7332.00
2019-02-21T11:08:11.554Z,7304.00
2019-02-21T11:10:04.467Z,7136.00
2019-02-21T11:11:04.475Z,7104.00
2019-02-21T11:12:57.379Z,7140.00
2019-02-21T11:13:57.396Z,7176.00
2019-02-21T11:15:50.312Z,7268.00
2019-02-21T11:16:50.324Z,7184.00
2019-02-21T11:18:43.225Z,7528.00
2019-02-21T11:19:43.242Z,8208.00
2019-02-21T11:21:36.156Z,9084.00
2019-02-21T11:22:36.173Z,9144.00
2019-02-21T11:24:29.073Z,8296.00
2019-02-21T11:25:29.129Z,7848.00
2019-02-21T11:27:21.989Z,7684.00
2019-02-21T11:28:22.011Z,7948.00
2019-02-21T11:30:14.926Z,8612.00
2019-02-21T11:31:14.932Z,8696.00
2019-02-21T11:33:07.839Z,8476.00
2019-02-21T11:34:07.854Z,8256.00
2019-02-21T11:36:00.775Z,8632.00
2019-02-21T11:37:00.783Z,9760.00
2019-02-21T11:38:53.690Z,11192.00
2019-02-21T11:39:53.705Z,11584.00
2019-02-21T11:41:46.635Z,11956.00
2019-02-21T11:42:46.634Z,11860.00
2019-02-21T11:44:39.549Z,11632.00
2019-02-21T11:45:39.550Z,11340.00
2019-02-21T11:47:32.457Z,11188.00
2019-02-21T11:48:32.474Z,10956.00
2019-02-21T11:50:25.390Z,9140.00
2019-02-21T11:51:25.398Z,8252.00
2019-02-21T11:53:18.312Z,7460.00
2019-02-21T11:54:26.466Z,7056.00
2019-02-21T11:56:11.244Z,6688.00
2019-02-21T11:57:11.252Z,6580.00
2019-02-21T11:59:04.170Z,6524.00
2019-02-21T12:00:04.185Z,6484.00
2019-02-21T12:01:57.154Z,6144.00
2019-02-21T12:02:57.162Z,5896.00
2019-02-21T12:04:50.077Z,5472.00
2019-02-21T12:05:50.086Z,5412.00
2019-02-21T12:07:42.995Z,5532.00
2019-02-21T12:08:43.014Z,5580.00
2019-02-21T12:10:35.927Z,5620.00
2019-02-21T12:11:35.935Z,5336.00
2019-02-21T12:13:28.842Z,5104.00
2019-02-21T12:14:28.858Z,5276.00
2019-02-21T12:16:21.769Z,5888.00
2019-02-21T12:17:21.778Z,6608.00
2019-02-21T12:19:14.685Z,7908.00
2019-02-21T12:20:14.700Z,8044.00
2019-02-21T12:22:07.623Z,7148.00
2019-02-21T12:23:07.623Z,6520.00
2019-02-21T12:25:00.551Z,5544.00
2019-02-21T12:26:00.542Z,5384.00
2019-02-21T12:27:53.451Z,5972.00
2019-02-21T12:28:53.469Z,6332.00
2019-02-21T12:30:46.382Z,6460.00
2019-02-21T12:31:46.390Z,6556.00
2019-02-21T12:33:39.806Z,7044.00
2019-02-21T12:34:39.809Z,7108.00
2019-02-21T12:36:32.724Z,7008.00
2019-02-21T12:37:32.731Z,7060.00
2019-02-21T12:39:25.638Z,6900.00
2019-02-21T12:40:25.651Z,6916.00
2019-02-21T12:42:18.564Z,7380.00
2019-02-21T12:43:18.572Z,7616.00
2019-02-21T12:45:11.489Z,7908.00
2019-02-21T12:46:11.495Z,8044.00
2019-02-21T12:48:04.409Z,7940.00
2019-02-21T12:49:04.418Z,7716.00
2019-02-21T12:50:57.342Z,7236.00
2019-02-21T12:51:57.609Z,7088.00
2019-02-21T12:53:50.255Z,6564.00
2019-02-21T12:54:51.873Z,6296.00
2019-02-21T12:56:43.189Z,6424.00
2019-02-21T12:57:43.199Z,6624.00
2019-02-21T12:59:36.115Z,7064.00
2019-02-21T13:00:36.711Z,7216.00
2019-02-21T13:02:29.042Z,7076.00
2019-02-21T13:03:29.049Z,6884.00
2019-02-21T13:05:21.973Z,6948.00
2019-02-21T13:06:21.977Z,7204.00
2019-02-21T13:08:14.906Z,7468.00
2019-02-21T13:09:14.899Z,7368.00
2019-02-21T13:11:07.819Z,7112.00
2019-02-21T13:12:07.825Z,7156.00
2019-02-21T13:14:00.736Z,7212.00
2019-02-21T13:15:00.752Z,7012.00
2019-02-21T13:16:53.667Z,6748.00
2019-02-21T13:17:53.675Z,6736.00
2019-02-21T13:19:46.598Z,6596.00
2019-02-21T13:20:46.601Z,6500.00
2019-02-21T13:22:40.027Z,6448.00
2019-02-21T13:23:42.804Z,6504.00
2019-02-21T13:25:32.935Z,6716.00
2019-02-21T13:26:32.946Z,6896.00
2019-02-21T13:28:25.859Z,7004.00
2019-02-21T13:29:25.869Z,7140.00
2019-02-21T13:31:18.785Z,6828.00
2019-02-21T13:32:18.868Z,6588.00
2019-02-21T13:34:11.700Z,6416.00
2019-02-21T13:35:11.716Z,6396.00
2019-02-21T13:37:04.635Z,6552.00
2019-02-21T13:38:04.643Z,6508.00
2019-02-21T13:40:00.448Z,6204.00
2019-02-21T13:40:57.570Z,6032.00
2019-02-21T13:42:50.482Z,5896.00
2019-02-21T13:43:50.494Z,5968.00
2019-02-21T13:45:43.410Z,6132.00
2019-02-21T13:46:43.417Z,6088.00
2019-02-21T13:48:36.325Z,6288.00
2019-02-21T13:49:36.354Z,6456.00
2019-02-21T13:51:29.262Z,6596.00
2019-02-21T13:52:29.274Z,6400.00
2019-02-21T13:54:22.197Z,5592.00
2019-02-21T13:55:22.210Z,5348.00
2019-02-21T13:57:15.640Z,5396.00
2019-02-21T13:58:15.648Z,5496.00
2019-02-21T14:00:08.553Z,5460.00
2019-02-21T14:01:08.575Z,5492.00
2019-02-21T14:03:01.489Z,5500.00
2019-02-21T14:04:01.500Z,5432.00
2019-02-21T14:06:03.217Z,5288.00
2019-02-21T14:06:54.429Z,5084.00
2019-02-21T14:08:47.340Z,4528.00
2019-02-21T14:09:47.353Z,4236.00
2019-02-21T14:11:40.265Z,3948.00
2019-02-21T14:12:40.274Z,4172.00
2019-02-21T14:14:33.187Z,4984.00
2019-02-21T14:15:33.199Z,5164.00
2019-02-21T14:17:26.113Z,4652.00
2019-02-21T14:18:26.123Z,4204.00
2019-02-21T14:20:19.034Z,4040.00
2019-02-21T14:21:19.075Z,4380.00
2019-02-21T14:23:12.470Z,5116.00
2019-02-21T14:24:12.478Z,5440.00
2019-02-21T14:26:05.893Z,6248.00
2019-02-21T14:27:08.638Z,6564.00
2019-02-21T14:28:58.854Z,6700.00
2019-02-21T14:29:58.822Z,6484.00
2019-02-21T14:31:51.736Z,5356.00
2019-02-21T14:32:51.748Z,5024.00
2019-02-21T14:34:44.657Z,4676.00
2019-02-21T14:35:44.672Z,4500.00
2019-02-21T14:37:37.587Z,3952.00
2019-02-21T14:38:37.962Z,3784.00
2019-02-21T14:40:30.517Z,3472.00
2019-02-21T14:41:30.523Z,3196.00
2019-02-21T14:43:23.443Z,3336.00
2019-02-21T14:44:23.465Z,3516.00
2019-02-21T14:46:16.571Z,3084.00
2019-02-21T14:47:16.572Z,2796.00
2019-02-21T14:49:09.476Z,2692.00
2019-02-21T14:50:09.494Z,2740.00
2019-02-21T14:52:02.411Z,3000.00
2019-02-21T14:53:02.417Z,3384.00
2019-02-21T14:54:55.326Z,3620.00
2019-02-21T14:55:55.347Z,3540.00
2019-02-21T14:57:48.253Z,3288.00
2019-02-21T14:58:48.300Z,3092.00
2019-02-21T15:00:41.173Z,2940.00
2019-02-21T15:01:41.203Z,2920.00
2019-02-21T15:03:34.100Z,2988.00
2019-02-21T15:04:34.105Z,3008.00
2019-02-21T15:06:27.611Z,2892.00
2019-02-21T15:07:27.031Z,2764.00
2019-02-21T15:09:19.939Z,2536.00
2019-02-21T15:10:19.960Z,2528.00
2019-02-21T15:12:13.859Z,2588.00
2019-02-21T15:13:13.868Z,2580.00
2019-02-21T15:15:06.776Z,2472.00
2019-02-21T15:16:06.800Z,2364.00
2019-02-21T15:18:07.697Z,2180.00
2019-02-21T15:18:59.716Z,2132.00
2019-02-21T15:20:52.627Z,2104.00
2019-02-21T15:21:52.641Z,2156.00
2019-02-21T15:23:45.556Z,2240.00
2019-02-21T15:24:45.568Z,2240.00
2019-02-21T15:26:38.478Z,2244.00
2019-02-21T15:27:38.490Z,2264.00
2019-02-21T15:29:31.537Z,2296.00
2019-02-21T15:30:31.560Z,2264.00
2019-02-21T15:32:24.472Z,2040.00
2019-02-21T15:33:24.476Z,1884.00
2019-02-21T15:35:19.423Z,1620.00
2019-02-21T15:36:17.397Z,1468.00
2019-02-21T15:38:19.616Z,1332.00
2019-02-21T15:39:10.323Z,1284.00
2019-02-21T15:41:03.230Z,1256.00
2019-02-21T15:42:03.248Z,1260.00
2019-02-21T15:43:56.162Z,1300.00
2019-02-21T15:44:56.170Z,1336.00
2019-02-21T15:46:49.084Z,1336.00
2019-02-21T15:47:49.101Z,1332.00
2019-02-21T15:49:41.999Z,1176.00
2019-02-21T15:50:42.015Z,1056.00
2019-02-21T15:52:34.925Z,980.00
2019-02-21T15:53:34.936Z,904.00
2019-02-21T15:55:27.847Z,824.00
2019-02-21T15:56:27.859Z,812.00
2019-02-21T15:58:20.795Z,792.00
2019-02-21T15:59:20.808Z,784.00
2019-02-21T16:01:14.371Z,752.00
2019-02-21T16:02:13.725Z,684.00
2019-02-21T16:04:06.636Z,728.00
2019-02-21T16:05:06.648Z,740.00
2019-02-21T16:06:59.562Z,736.00
2019-02-21T16:07:59.569Z,820.00
2019-02-21T16:09:52.473Z,904.00
2019-02-21T16:10:52.488Z,876.00
2019-02-21T16:12:46.020Z,756.00
2019-02-21T16:13:45.647Z,748.00
2019-02-21T16:15:38.325Z,592.00
2019-02-21T16:16:38.338Z,540.00
2019-02-21T16:18:31.258Z,592.00
2019-02-21T16:19:31.272Z,620.00
2019-02-21T16:21:24.171Z,612.00
2019-02-21T16:22:24.187Z,632.00
2019-02-21T16:24:17.103Z,540.00
2019-02-21T16:25:17.107Z,496.00
2019-02-21T16:27:10.019Z,420.00
2019-02-21T16:28:10.030Z,380.00
2019-02-21T16:30:02.945Z,344.00
2019-02-21T16:31:02.947Z,340.00
2019-02-21T16:32:55.859Z,316.00
2019-02-21T16:33:55.865Z,296.00
2019-02-21T16:35:48.787Z,268.00
2019-02-21T16:36:48.790Z,248.00
2019-02-21T16:38:41.702Z,204.00
2019-02-21T16:39:41.711Z,180.00
2019-02-21T16:41:36.568Z,156.00
2019-02-21T16:42:34.632Z,152.00
2019-02-21T16:44:27.544Z,148.00
2019-02-21T16:45:39.809Z,136.00
2019-02-21T16:47:20.468Z,112.00
2019-02-21T16:48:20.477Z,104.00
2019-02-21T16:50:13.382Z,96.00
2019-02-21T16:51:13.392Z,88.00
2019-02-21T16:53:06.306Z,72.00
2019-02-21T16:54:06.313Z,64.00
2019-02-21T16:55:59.215Z,52.00
2019-02-21T16:56:59.233Z,48.00
2019-02-21T16:58:52.144Z,36.00
2019-02-21T16:59:52.152Z,32.00
2019-02-21T17:01:45.058Z,24.00
2019-02-21T17:02:45.077Z,20.00
2019-02-21T17:04:37.983Z,16.00
2019-02-21T17:05:37.997Z,16.00
2019-02-21T17:07:30.907Z,8.00
2019-02-21T17:08:30.921Z,8.00
2019-02-21T17:10:23.819Z,4.00
2019-02-21T17:11:23.836Z,4.00
2019-02-21T17:13:16.748Z,4.00
2019-02-21T17:14:16.752Z,4.00
2019-02-21T17:16:09.660Z,0.00
2019-02-21T17:17:09.677Z,4.00
2019-02-21T17:19:02.586Z,0.00
2019-02-21T17:20:02.596Z,0.00
2019-02-21T17:21:55.513Z,0.00
2019-02-21T17:22:55.511Z,0.00
2019-02-21T17:24:48.428Z,0.00
2019-02-21T17:25:48.460Z,0.00
2019-02-21T17:27:41.348Z,0.00
2019-02-21T17:28:41.351Z,0.00
2019-02-21T17:30:34.258Z,0.00
2019-02-21T17:31:34.273Z,0.00
2019-02-21T17:33:27.186Z,0.00
2019-02-21T17:34:27.197Z,0.00
2019-02-21T17:36:20.098Z,0.00
2019-02-21T17:37:24.850Z,0.00
2019-02-21T17:39:13.024Z,0.00
2019-02-21T17:40:13.041Z,0.00
2019-02-21T17:42:05.941Z,0.00
2019-02-21T17:43:05.956Z,0.00
2019-02-21T17:44:58.868Z,0.00
2019-02-21T17:45:58.972Z,0.00
2019-02-21T17:47:51.786Z,0.00
2019-02-21T17:48:51.785Z,0.00
2019-02-21T17:50:44.694Z,0.00
2019-02-21T17:51:44.705Z,0.00
2019-02-21T17:53:37.617Z,0.00
2019-02-21T17:54:37.624Z,0.00
2019-02-21T17:56:31.022Z,0.00
2019-02-21T17:57:31.061Z,0.00
2019-02-21T17:59:23.954Z,0.00
2019-02-21T18:00:23.963Z,0.00
2019-02-21T18:02:16.867Z,0.00
2019-02-21T18:03:16.878Z,0.00
2019-02-21T18:05:09.799Z,0.00
2019-02-21T18:06:09.896Z,0.00
2019-02-21T18:08:02.757Z,0.00
2019-02-21T18:09:02.825Z,0.00
2019-02-21T18:10:55.745Z,0.00